createdAt,value
2024-01-30T00:02:22.580Z,17.57
2024-01-30T00:04:50.499Z,22.17
2024-01-30T00:07:20.048Z,19.93
2024-01-30T00:09:49.181Z,21.40
2024-01-30T00:12:17.216Z,19.00
2024-01-30T00:14:45.574Z,16.93
2024-01-30T00:17:13.524Z,21.43
2024-01-30T00:19:41.545Z,21.20
2024-01-30T00:22:09.368Z,16.33
2024-01-30T00:24:38.595Z,23.50
2024-01-30T00:27:07.252Z,18.67
2024-01-30T00:29:35.344Z,18.73
2024-01-30T00:32:03.073Z,17.43
2024-01-30T00:34:31.315Z,18.67
2024-01-30T00:36:59.443Z,22.30
2024-01-30T00:39:27.351Z,21.37
2024-01-30T00:41:56.623Z,17.20
2024-01-30T00:44:24.663Z,20.07
2024-01-30T00:46:52.377Z,17.73
2024-01-30T00:49:20.205Z,20.20
2024-01-30T00:51:49.040Z,23.90
2024-01-30T00:54:16.855Z,20.27
2024-01-30T00:56:46.369Z,20.13
2024-01-30T00:59:15.797Z,18.07
2024-01-30T01:01:44.064Z,19.07
2024-01-30T01:04:11.822Z,17.03
2024-01-30T01:06:39.863Z,17.27
2024-01-30T01:09:08.051Z,23.80
2024-01-30T01:11:35.756Z,20.90
2024-01-30T01:14:03.516Z,17.90
2024-01-30T01:16:32.701Z,20.53
2024-01-30T01:19:01.426Z,20.03
2024-01-30T01:21:29.703Z,18.77
2024-01-30T01:23:57.746Z,20.47
2024-01-30T01:26:25.834Z,20.50
2024-01-30T01:28:53.631Z,20.10
2024-01-30T01:31:25.731Z,18.17
2024-01-30T01:33:55.352Z,17.27
2024-01-30T01:36:23.605Z,15.70
2024-01-30T01:38:51.293Z,21.13
2024-01-30T01:41:19.210Z,21.20
2024-01-30T01:43:47.494Z,20.50
2024-01-30T01:46:15.400Z,16.80
2024-01-30T01:48:44.582Z,20.53
2024-01-30T01:51:14.150Z,18.87
2024-01-30T01:53:42.143Z,17.23
2024-01-30T01:56:10.538Z,17.37
2024-01-30T01:58:39.776Z,21.10
2024-01-30T02:01:07.946Z,18.37
2024-01-30T02:03:36.617Z,19.97
2024-01-30T02:06:05.666Z,19.87
2024-01-30T02:08:34.881Z,16.40
2024-01-30T02:11:02.977Z,20.67
2024-01-30T02:13:31.113Z,19.40
2024-01-30T02:15:58.976Z,15.43
2024-01-30T02:18:27.269Z,18.80
2024-01-30T02:20:58.226Z,19.67
2024-01-30T02:23:28.500Z,18.70
2024-01-30T02:25:56.451Z,21.00
2024-01-30T02:28:24.549Z,25.73
2024-01-30T02:30:52.630Z,24.73
2024-01-30T02:33:20.515Z,19.87
2024-01-30T02:35:48.612Z,21.17
2024-01-30T02:38:17.549Z,18.10
2024-01-30T02:40:46.898Z,20.80
2024-01-30T02:43:15.274Z,18.47
2024-01-30T02:45:43.166Z,18.87
2024-01-30T02:48:11.405Z,18.83
2024-01-30T02:50:39.208Z,18.40
2024-01-30T02:53:07.109Z,19.63
2024-01-30T02:55:35.295Z,20.50
2024-01-30T02:58:04.580Z,14.07
2024-01-30T03:00:32.470Z,19.20
2024-01-30T03:03:00.631Z,19.63
2024-01-30T03:05:28.810Z,21.30
2024-01-30T03:07:56.644Z,18.70
2024-01-30T03:10:24.860Z,14.37
2024-01-30T03:12:52.908Z,22.40
2024-01-30T03:15:21.962Z,25.77
2024-01-30T03:17:49.952Z,20.27
2024-01-30T03:20:17.919Z,21.60
2024-01-30T03:22:46.114Z,19.70
2024-01-30T03:25:14.201Z,20.70
2024-01-30T03:27:42.332Z,19.80
2024-01-30T03:30:10.925Z,19.83
2024-01-30T03:32:40.556Z,16.17
2024-01-30T03:35:09.085Z,18.37
2024-01-30T03:37:37.036Z,23.90
2024-01-30T03:40:05.524Z,20.83
2024-01-30T03:42:33.834Z,21.93
2024-01-30T03:45:01.539Z,26.63
2024-01-30T03:47:29.820Z,22.17
2024-01-30T03:49:59.118Z,22.10
2024-01-30T03:52:26.921Z,20.73
2024-01-30T03:54:54.876Z,21.70
2024-01-30T03:57:23.144Z,18.43
2024-01-30T03:59:51.063Z,23.00
2024-01-30T04:02:19.113Z,21.17
2024-01-30T04:04:47.857Z,21.60
2024-01-30T04:07:17.104Z,25.00
2024-01-30T04:09:45.058Z,19.83
2024-01-30T04:12:12.921Z,25.33
2024-01-30T04:14:41.364Z,25.00
2024-01-30T04:17:09.549Z,23.83
2024-01-30T04:19:39.690Z,26.93
2024-01-30T04:22:07.917Z,28.90
2024-01-30T04:24:37.068Z,27.63
2024-01-30T04:27:05.379Z,22.97
2024-01-30T04:29:34.509Z,24.37
2024-01-30T04:32:02.604Z,22.87
2024-01-30T04:34:30.778Z,20.50
2024-01-30T04:36:59.496Z,25.47
2024-01-30T04:39:27.239Z,18.33
2024-01-30T04:41:56.396Z,21.87
2024-01-30T04:44:24.133Z,23.40
2024-01-30T04:46:51.938Z,27.10
2024-01-30T04:49:19.795Z,28.93
2024-01-30T04:51:47.583Z,20.10
2024-01-30T04:54:15.560Z,21.07
2024-01-30T04:56:43.356Z,20.83
2024-01-30T04:59:12.393Z,21.87
2024-01-30T05:01:40.232Z,22.60
2024-01-30T05:04:10.873Z,26.70
2024-01-30T05:06:39.885Z,24.67
2024-01-30T05:09:07.639Z,21.43
2024-01-30T05:11:40.780Z,25.33
2024-01-30T05:14:09.698Z,23.57
2024-01-30T05:16:39.344Z,25.67
2024-01-30T05:19:07.241Z,22.90
2024-01-30T05:21:35.235Z,21.87
2024-01-30T05:24:03.220Z,24.60
2024-01-30T05:26:31.280Z,21.80
2024-01-30T05:28:59.235Z,18.37
2024-01-30T05:31:28.376Z,24.77
2024-01-30T05:33:58.187Z,23.90
2024-01-30T05:36:26.046Z,17.10
2024-01-30T05:38:53.948Z,24.40
2024-01-30T05:41:22.987Z,25.57
2024-01-30T05:43:51.003Z,20.80
2024-01-30T05:46:19.771Z,23.30
2024-01-30T05:48:49.206Z,21.77
2024-01-30T05:51:18.416Z,19.17
2024-01-30T05:53:46.240Z,18.53
2024-01-30T05:56:14.165Z,18.63
2024-01-30T05:58:42.316Z,20.80
2024-01-30T06:01:12.427Z,19.37
2024-01-30T06:03:40.722Z,26.03
2024-01-30T06:06:09.159Z,21.33
2024-01-30T06:08:38.398Z,18.40
2024-01-30T06:11:06.275Z,16.37
2024-01-30T06:13:34.422Z,21.87
2024-01-30T06:16:02.287Z,16.80
2024-01-30T06:18:32.136Z,20.60
2024-01-30T06:20:59.854Z,21.47
2024-01-30T06:23:27.551Z,22.60
2024-01-30T06:25:56.689Z,19.67
2024-01-30T06:28:24.769Z,20.17
2024-01-30T06:30:52.773Z,22.80
2024-01-30T06:33:20.853Z,26.17
2024-01-30T06:35:48.800Z,24.20
2024-01-30T06:38:17.023Z,22.07
2024-01-30T06:40:44.895Z,22.27
2024-01-30T06:43:14.827Z,18.70
2024-01-30T06:45:44.187Z,29.80
2024-01-30T06:48:12.115Z,18.87
2024-01-30T06:50:40.193Z,20.80
2024-01-30T06:53:07.966Z,23.77
2024-01-30T06:55:37.449Z,27.33
2024-01-30T06:58:05.561Z,21.43
2024-01-30T07:00:34.777Z,24.33
2024-01-30T07:03:02.743Z,24.47
2024-01-30T07:05:31.162Z,30.30
2024-01-30T07:07:59.102Z,24.47
2024-01-30T07:10:27.518Z,30.40
2024-01-30T07:12:55.717Z,28.70
2024-01-30T07:15:23.704Z,28.40
2024-01-30T07:17:52.947Z,23.90
2024-01-30T07:20:21.828Z,29.10
2024-01-30T07:22:49.682Z,30.23
2024-01-30T07:25:18.885Z,27.00
2024-01-30T07:27:46.779Z,27.73
2024-01-30T07:30:14.980Z,27.40
2024-01-30T07:32:42.876Z,29.10
2024-01-30T07:35:12.661Z,25.80
2024-01-30T07:37:40.695Z,24.87
2024-01-30T07:40:09.727Z,28.33
2024-01-30T07:42:37.621Z,32.43
2024-01-30T07:45:06.473Z,28.40
2024-01-30T07:47:34.235Z,28.10
2024-01-30T07:50:02.506Z,27.47
2024-01-30T07:52:31.675Z,26.10
2024-01-30T07:54:59.436Z,24.53
2024-01-30T07:57:27.600Z,26.13
2024-01-30T07:59:55.765Z,25.57
2024-01-30T08:02:23.510Z,24.50
2024-01-30T08:04:51.782Z,27.90
2024-01-30T08:07:19.750Z,29.70
2024-01-30T08:09:49.371Z,29.90
2024-01-30T08:12:17.318Z,37.87
2024-01-30T08:14:45.031Z,30.07
2024-01-30T08:17:13.086Z,33.67
2024-01-30T08:19:41.009Z,36.00
2024-01-30T08:22:08.945Z,36.63
2024-01-30T08:24:37.006Z,32.23
2024-01-30T08:27:06.472Z,36.13
2024-01-30T08:29:34.480Z,31.20
2024-01-30T08:32:02.403Z,28.33
2024-01-30T08:34:30.373Z,27.57
2024-01-30T08:36:58.644Z,31.47
2024-01-30T08:39:27.118Z,30.83
2024-01-30T08:41:56.443Z,25.93
2024-01-30T08:44:25.936Z,23.63
2024-01-30T08:46:56.285Z,25.97
2024-01-30T08:49:24.699Z,25.07
2024-01-30T08:51:52.792Z,22.90
2024-01-30T08:54:20.586Z,24.10
2024-01-30T08:56:48.901Z,23.93
2024-01-30T08:59:17.048Z,20.53
2024-01-30T09:01:55.744Z,22.83
2024-01-30T09:04:31.625Z,24.30
2024-01-30T09:07:00.338Z,23.23
2024-01-30T09:09:28.922Z,24.73
2024-01-30T09:11:56.859Z,18.73
2024-01-30T09:14:24.978Z,18.50
2024-01-30T09:16:54.492Z,20.53
2024-01-30T09:19:22.270Z,20.57
2024-01-30T09:21:51.134Z,21.03
2024-01-30T09:24:19.351Z,20.17
2024-01-30T09:26:47.067Z,16.70
2024-01-30T09:29:15.152Z,19.63
2024-01-30T09:31:45.315Z,21.43
2024-01-30T09:34:14.805Z,20.60
2024-01-30T09:36:42.578Z,18.33
2024-01-30T09:39:11.567Z,15.00
2024-01-30T09:41:47.837Z,15.07
2024-01-30T09:44:18.064Z,22.10
2024-01-30T09:46:49.216Z,15.97
2024-01-30T09:49:21.263Z,19.33
2024-01-30T09:51:50.663Z,18.40
2024-01-30T09:54:19.744Z,20.20
2024-01-30T09:56:47.659Z,20.07
2024-01-30T09:59:16.156Z,12.70
2024-01-30T10:01:44.868Z,14.73
2024-01-30T10:04:13.221Z,16.83
2024-01-30T10:06:42.875Z,17.53
2024-01-30T10:09:10.686Z,17.93
2024-01-30T10:11:39.095Z,18.00
2024-01-30T10:14:07.483Z,16.53
2024-01-30T10:16:36.788Z,15.70
2024-01-30T10:19:05.065Z,17.17
2024-01-30T10:21:33.265Z,15.93
2024-01-30T10:24:02.581Z,19.80
2024-01-30T10:26:34.332Z,14.80
2024-01-30T10:29:02.037Z,16.17
2024-01-30T10:31:30.238Z,13.73
2024-01-30T10:34:08.273Z,13.83
2024-01-30T10:36:43.428Z,12.37
2024-01-30T10:39:13.770Z,15.77
2024-01-30T10:41:46.229Z,13.30
2024-01-30T10:44:20.481Z,18.60
2024-01-30T10:46:53.393Z,13.30
2024-01-30T10:49:23.408Z,15.07
2024-01-30T10:51:52.900Z,12.17
2024-01-30T10:54:23.162Z,15.10
2024-01-30T10:56:51.895Z,13.30
2024-01-30T10:59:20.912Z,14.20
2024-01-30T11:01:48.981Z,16.20
2024-01-30T11:04:17.312Z,13.57
2024-01-30T11:06:45.441Z,11.00
2024-01-30T11:09:15.747Z,10.37
2024-01-30T11:12:00.890Z,14.23
2024-01-30T11:14:29.767Z,10.57
2024-01-30T11:16:59.451Z,14.60
2024-01-30T11:19:28.795Z,17.23
2024-01-30T11:21:58.501Z,11.70
2024-01-30T11:24:27.314Z,10.97
2024-01-30T11:27:00.051Z,10.10
2024-01-30T11:29:29.319Z,13.53
2024-01-30T11:31:59.288Z,11.87
2024-01-30T11:34:28.275Z,13.90
2024-01-30T11:37:00.536Z,16.67
2024-01-30T11:39:28.906Z,13.03
2024-01-30T11:41:57.184Z,19.60
2024-01-30T11:44:27.088Z,12.20
2024-01-30T11:46:55.051Z,14.13
2024-01-30T11:49:23.147Z,16.00
2024-01-30T11:51:51.617Z,18.80
2024-01-30T11:54:19.890Z,17.87
2024-01-30T11:56:47.891Z,13.77
2024-01-30T11:59:16.134Z,15.10
2024-01-30T12:01:45.492Z,14.17
2024-01-30T12:04:14.141Z,12.50
2024-01-30T12:06:42.353Z,16.00
2024-01-30T12:09:14.432Z,12.57
2024-01-30T12:11:48.747Z,14.40
2024-01-30T12:14:18.301Z,13.50
2024-01-30T12:16:50.475Z,11.50
2024-01-30T12:19:24.383Z,12.70
2024-01-30T12:22:01.672Z,12.53
2024-01-30T12:24:31.272Z,16.57
2024-01-30T12:27:01.734Z,17.67
2024-01-30T12:29:32.924Z,14.87
2024-01-30T12:32:04.940Z,13.07
2024-01-30T12:34:34.927Z,13.40
2024-01-30T12:37:07.604Z,16.60
2024-01-30T12:39:35.684Z,17.80
2024-01-30T12:42:04.320Z,11.00
2024-01-30T12:44:32.422Z,13.00
2024-01-30T12:47:02.569Z,11.20
2024-01-30T12:49:31.627Z,15.70
2024-01-30T12:52:00.746Z,12.57
2024-01-30T12:54:29.066Z,15.20
2024-01-30T12:56:57.266Z,14.20
2024-01-30T12:59:25.339Z,12.67
2024-01-30T13:01:53.410Z,12.23
2024-01-30T13:04:21.693Z,12.90
2024-01-30T13:06:51.111Z,11.77
2024-01-30T13:09:18.819Z,13.33
2024-01-30T13:11:46.538Z,15.90
2024-01-30T13:14:14.595Z,11.73
2024-01-30T13:16:42.630Z,13.83
2024-01-30T13:19:10.388Z,14.50
2024-01-30T13:21:38.740Z,10.60
2024-01-30T13:24:08.648Z,11.10
2024-01-30T13:26:37.033Z,12.70
2024-01-30T13:29:04.780Z,10.33
2024-01-30T13:31:32.475Z,13.93
2024-01-30T13:34:00.861Z,11.87
2024-01-30T13:36:28.852Z,11.03
2024-01-30T13:38:56.603Z,16.23
2024-01-30T13:41:25.858Z,15.10
2024-01-30T13:43:53.507Z,11.50
2024-01-30T13:46:21.413Z,11.37
2024-01-30T13:48:49.449Z,12.83
2024-01-30T13:51:18.254Z,11.60
2024-01-30T13:53:45.921Z,11.83
2024-01-30T13:56:13.664Z,11.47
2024-01-30T13:58:42.895Z,16.10
2024-01-30T14:01:11.287Z,13.40
2024-01-30T14:03:39.117Z,12.77
2024-01-30T14:06:08.916Z,12.40
2024-01-30T14:08:36.956Z,11.53
2024-01-30T14:11:04.936Z,13.40
2024-01-30T14:13:34.066Z,11.43
2024-01-30T14:16:07.579Z,10.00
2024-01-30T14:18:38.492Z,12.60
2024-01-30T14:21:07.843Z,12.70
2024-01-30T14:23:35.640Z,11.77
2024-01-30T14:26:05.211Z,13.13
2024-01-30T14:28:32.912Z,13.10
2024-01-30T14:31:00.846Z,10.37
2024-01-30T14:33:29.913Z,9.90
2024-01-30T14:35:58.072Z,11.63
2024-01-30T14:38:26.743Z,11.90
2024-01-30T14:40:54.698Z,11.60
2024-01-30T14:43:22.465Z,13.63
2024-01-30T14:45:51.154Z,10.27
2024-01-30T14:48:19.567Z,16.13
2024-01-30T14:50:49.968Z,18.20
2024-01-30T14:53:17.843Z,13.53
2024-01-30T14:55:47.100Z,9.17
2024-01-30T14:58:14.859Z,12.33
2024-01-30T15:00:44.150Z,9.00
2024-01-30T15:03:12.322Z,9.77
2024-01-30T15:05:41.907Z,14.67
2024-01-30T15:08:11.621Z,10.93
2024-01-30T15:10:39.657Z,11.40
2024-01-30T15:13:07.534Z,10.93
2024-01-30T15:15:35.481Z,9.67
2024-01-30T15:18:04.550Z,9.77
2024-01-30T15:20:32.687Z,9.30
2024-01-30T15:23:00.400Z,10.73
2024-01-30T15:25:30.553Z,10.90
2024-01-30T15:27:58.411Z,10.10
2024-01-30T15:30:27.702Z,7.27
2024-01-30T15:32:56.168Z,9.37
2024-01-30T15:35:24.215Z,8.70
2024-01-30T15:37:54.050Z,10.73
2024-01-30T15:40:22.130Z,11.40
2024-01-30T15:42:51.501Z,12.73
2024-01-30T15:45:20.880Z,9.97
2024-01-30T15:47:48.703Z,8.43
2024-01-30T15:50:19.203Z,9.10
2024-01-30T15:52:47.250Z,6.87
2024-01-30T15:55:16.735Z,27.83
2024-01-30T15:57:45.271Z,18.03
2024-01-30T16:00:16.898Z,20.60
2024-01-30T16:02:45.650Z,15.80
2024-01-30T16:05:14.650Z,13.57
2024-01-30T16:07:43.145Z,14.47
2024-01-30T16:10:17.543Z,16.10
2024-01-30T16:12:46.467Z,15.50
2024-01-30T16:15:16.869Z,11.37
2024-01-30T16:17:44.903Z,13.90
2024-01-30T16:20:16.369Z,14.00
2024-01-30T16:22:47.137Z,11.30
2024-01-30T16:25:19.244Z,11.97
2024-01-30T16:27:47.471Z,13.23
2024-01-30T16:30:19.672Z,11.70
2024-01-30T16:32:48.033Z,9.53
2024-01-30T16:35:16.371Z,10.03
2024-01-30T16:37:44.339Z,11.30
2024-01-30T16:40:13.314Z,25.07
2024-01-30T16:42:41.403Z,19.00
2024-01-30T16:45:09.529Z,21.10
2024-01-30T16:47:39.646Z,17.93
2024-01-30T16:50:08.308Z,14.57
2024-01-30T16:52:36.543Z,10.50
2024-01-30T16:55:05.565Z,15.20
2024-01-30T16:57:35.435Z,18.67
2024-01-30T17:00:06.810Z,25.63
2024-01-30T17:02:35.203Z,25.07
2024-01-30T17:05:15.370Z,21.30
2024-01-30T17:07:49.262Z,23.27
2024-01-30T17:10:17.718Z,21.57
2024-01-30T17:12:46.267Z,21.20
2024-01-30T17:15:14.626Z,18.40
2024-01-30T17:17:42.469Z,15.67
2024-01-30T17:20:13.376Z,18.13
2024-01-30T17:22:45.228Z,12.73
2024-01-30T17:25:15.951Z,13.90
2024-01-30T17:27:46.104Z,20.00
2024-01-30T17:30:15.032Z,19.20
2024-01-30T17:32:43.173Z,16.00
2024-01-30T17:35:12.344Z,21.13
2024-01-30T17:37:41.218Z,16.30
2024-01-30T17:40:10.122Z,14.37
2024-01-30T17:42:38.135Z,15.60
2024-01-30T17:45:06.621Z,21.03
2024-01-30T17:47:35.402Z,20.53
2024-01-30T17:50:04.895Z,31.83
2024-01-30T17:52:39.536Z,25.03
2024-01-30T17:55:07.974Z,22.40
2024-01-30T17:57:35.840Z,33.63
2024-01-30T18:00:09.135Z,21.10
2024-01-30T18:02:36.802Z,16.80
2024-01-30T18:05:05.623Z,21.63
2024-01-30T18:07:35.086Z,19.97
2024-01-30T18:10:03.016Z,18.97
2024-01-30T18:12:31.309Z,16.07
2024-01-30T18:15:00.719Z,19.33
2024-01-30T18:17:31.044Z,17.20
2024-01-30T18:19:58.883Z,19.13
2024-01-30T18:22:26.649Z,23.13
2024-01-30T18:24:56.642Z,22.60
2024-01-30T18:27:24.849Z,20.30
2024-01-30T18:29:56.496Z,19.10
2024-01-30T18:32:26.746Z,21.00
2024-01-30T18:34:54.621Z,21.70
2024-01-30T18:37:22.597Z,18.33
2024-01-30T18:39:50.689Z,19.97
2024-01-30T18:42:20.014Z,18.00
2024-01-30T18:44:48.333Z,16.03
2024-01-30T18:47:18.772Z,20.33
2024-01-30T18:49:46.786Z,18.47
2024-01-30T18:52:14.932Z,18.23
2024-01-30T18:54:43.170Z,20.80
2024-01-30T18:57:11.037Z,18.30
2024-01-30T18:59:40.361Z,16.97
2024-01-30T19:02:08.578Z,15.30
2024-01-30T19:04:36.469Z,21.30
2024-01-30T19:07:04.365Z,18.70
2024-01-30T19:09:34.449Z,31.23
2024-01-30T19:12:04.606Z,24.90
2024-01-30T19:14:33.158Z,26.90
2024-01-30T19:17:02.183Z,23.60
2024-01-30T19:19:31.061Z,23.73
2024-01-30T19:21:58.902Z,23.77
2024-01-30T19:24:26.758Z,33.23
2024-01-30T19:26:54.612Z,37.10
2024-01-30T19:29:22.391Z,37.90
2024-01-30T19:31:50.350Z,35.37
2024-01-30T19:34:19.881Z,35.93
2024-01-30T19:36:50.256Z,34.43
2024-01-30T19:39:18.522Z,25.90
2024-01-30T19:41:46.578Z,24.73
2024-01-30T19:44:14.335Z,25.10
2024-01-30T19:46:42.834Z,25.10
2024-01-30T19:49:11.050Z,25.13
2024-01-30T19:51:40.560Z,20.07
2024-01-30T19:54:11.775Z,29.30
2024-01-30T19:56:39.967Z,25.33
2024-01-30T19:59:08.049Z,22.50
2024-01-30T20:01:36.427Z,22.23
2024-01-30T20:04:04.618Z,21.97
2024-01-30T20:06:32.487Z,20.93
2024-01-30T20:09:01.578Z,20.50
2024-01-30T20:11:32.949Z,22.47
2024-01-30T20:14:02.809Z,30.43
2024-01-30T20:16:38.808Z,27.27
2024-01-30T20:19:11.654Z,25.13
2024-01-30T20:21:41.583Z,23.97
2024-01-30T20:24:11.968Z,21.57
2024-01-30T20:26:39.644Z,22.07
2024-01-30T20:29:07.925Z,26.33
2024-01-30T20:31:36.248Z,22.63
2024-01-30T20:34:04.001Z,22.43
2024-01-30T20:36:31.950Z,25.30
2024-01-30T20:38:59.749Z,24.40
2024-01-30T20:41:28.893Z,18.67
2024-01-30T20:43:57.215Z,19.53
2024-01-30T20:46:25.246Z,19.67
2024-01-30T20:48:53.307Z,26.17
2024-01-30T20:51:21.246Z,23.40
2024-01-30T20:53:49.388Z,20.77
2024-01-30T20:56:17.217Z,20.53
2024-01-30T20:58:46.510Z,17.97
2024-01-30T21:01:14.207Z,17.70
2024-01-30T21:03:43.171Z,18.87
2024-01-30T21:06:11.572Z,17.33
2024-01-30T21:08:41.443Z,18.17
2024-01-30T21:11:09.608Z,18.47
2024-01-30T21:13:38.058Z,22.50
2024-01-30T21:16:07.325Z,21.50
2024-01-30T21:18:37.789Z,21.03
2024-01-30T21:21:06.646Z,23.37
2024-01-30T21:23:34.586Z,17.97
2024-01-30T21:26:04.850Z,20.80
2024-01-30T21:28:32.756Z,20.87
2024-01-30T21:31:00.807Z,26.97
2024-01-30T21:33:30.293Z,21.27
2024-01-30T21:35:59.530Z,19.70
2024-01-30T21:38:28.465Z,41.17
2024-01-30T21:40:56.136Z,39.27
2024-01-30T21:43:24.444Z,32.60
2024-01-30T21:45:52.572Z,32.47
2024-01-30T21:48:20.396Z,39.67
2024-01-30T21:50:49.516Z,27.33
2024-01-30T21:53:17.928Z,26.63
2024-01-30T21:55:47.220Z,30.83
2024-01-30T21:58:15.520Z,21.60
2024-01-30T22:00:43.573Z,20.50
2024-01-30T22:03:11.788Z,32.10
2024-01-30T22:05:39.652Z,36.97
2024-01-30T22:08:09.032Z,31.67
2024-01-30T22:10:37.392Z,29.70
2024-01-30T22:13:05.443Z,26.57
2024-01-30T22:15:34.060Z,30.47
2024-01-30T22:18:01.859Z,24.33
2024-01-30T22:20:30.188Z,28.30
2024-01-30T22:22:57.996Z,26.93
2024-01-30T22:25:27.188Z,28.53
2024-01-30T22:27:55.223Z,22.80
2024-01-30T22:30:23.216Z,24.00
2024-01-30T22:32:51.038Z,30.63
2024-01-30T22:35:19.313Z,27.40
2024-01-30T22:37:47.114Z,31.10
2024-01-30T22:40:15.412Z,35.70
2024-01-30T22:42:45.234Z,31.50
2024-01-30T22:45:13.290Z,27.60
2024-01-30T22:47:40.956Z,27.70
2024-01-30T22:50:09.644Z,24.43
2024-01-30T22:52:37.558Z,25.70
2024-01-30T22:55:06.536Z,23.37
2024-01-30T22:57:34.716Z,27.63
2024-01-30T23:00:08.603Z,32.40
2024-01-30T23:02:36.485Z,24.40
2024-01-30T23:05:04.916Z,26.10
2024-01-30T23:07:37.173Z,21.60
2024-01-30T23:10:05.531Z,22.07
2024-01-30T23:12:34.151Z,21.80
2024-01-30T23:15:03.625Z,26.57
2024-01-30T23:17:33.588Z,25.77
2024-01-30T23:20:02.176Z,26.33
2024-01-30T23:22:30.736Z,28.67
2024-01-30T23:24:58.925Z,23.00
2024-01-30T23:27:26.682Z,23.57
2024-01-30T23:29:54.949Z,26.20
2024-01-30T23:32:30.054Z,24.33
2024-01-30T23:35:04.462Z,24.30
2024-01-30T23:37:33.174Z,27.37
2024-01-30T23:40:01.037Z,28.33
2024-01-30T23:42:28.744Z,28.90
2024-01-30T23:44:56.444Z,24.90
2024-01-30T23:47:24.279Z,26.43
2024-01-30T23:49:52.146Z,21.60
2024-01-30T23:52:22.402Z,24.30
2024-01-30T23:54:50.230Z,21.80
2024-01-30T23:57:19.058Z,23.10
2024-01-30T23:59:47.195Z,27.10
